sensor_id;sensor_type;location;lat;lon;timestamp;P1;durP1;ratioP1;P2;durP2;ratioP2
69305;SDS011;56427;51.580;4.656;2022-12-07T00:03:33;10.55;;;5.45;;
69305;SDS011;56427;51.580;4.656;2022-12-07T00:06:00;9.40;;;5.15;;
69305;SDS011;56427;51.580;4.656;2022-12-07T00:08:26;9.45;;;4.90;;
69305;SDS011;56427;51.580;4.656;2022-12-07T00:10:51;10.30;;;4.60;;
69305;SDS011;56427;51.580;4.656;2022-12-07T00:13:17;11.13;;;5.05;;
69305;SDS011;56427;51.580;4.656;2022-12-07T00:15:42;8.47;;;5.67;;
69305;SDS011;56427;51.580;4.656;2022-12-07T00:18:08;13.33;;;5.67;;
69305;SDS011;56427;51.580;4.656;2022-12-07T00:20:33;10.97;;;5.20;;
69305;SDS011;56427;51.580;4.656;2022-12-07T00:22:58;10.20;;;4.83;;
69305;SDS011;56427;51.580;4.656;2022-12-07T00:25:24;15.30;;;6.28;;
69305;SDS011;56427;51.580;4.656;2022-12-07T00:27:50;9.53;;;5.53;;
69305;SDS011;56427;51.580;4.656;2022-12-07T00:30:17;7.47;;;4.50;;
69305;SDS011;56427;51.580;4.656;2022-12-07T00:32:42;8.20;;;4.40;;
69305;SDS011;56427;51.580;4.656;2022-12-07T00:35:08;11.23;;;5.33;;
69305;SDS011;56427;51.580;4.656;2022-12-07T00:37:33;11.73;;;5.15;;
69305;SDS011;56427;51.580;4.656;2022-12-07T00:39:58;10.27;;;5.18;;
69305;SDS011;56427;51.580;4.656;2022-12-07T00:42:24;11.90;;;4.93;;
69305;SDS011;56427;51.580;4.656;2022-12-07T00:44:49;9.67;;;5.13;;
69305;SDS011;56427;51.580;4.656;2022-12-07T00:47:14;14.83;;;6.00;;
69305;SDS011;56427;51.580;4.656;2022-12-07T00:49:39;16.00;;;5.67;;
69305;SDS011;56427;51.580;4.656;2022-12-07T00:52:05;14.77;;;5.80;;
69305;SDS011;56427;51.580;4.656;2022-12-07T00:54:30;8.57;;;5.27;;
69305;SDS011;56427;51.580;4.656;2022-12-07T00:56:55;10.60;;;5.40;;
69305;SDS011;56427;51.580;4.656;2022-12-07T00:59:20;10.70;;;4.93;;
69305;SDS011;56427;51.580;4.656;2022-12-07T01:01:46;12.03;;;4.60;;
69305;SDS011;56427;51.580;4.656;2022-12-07T01:04:11;11.57;;;5.50;;
69305;SDS011;56427;51.580;4.656;2022-12-07T01:06:36;12.60;;;5.30;;
69305;SDS011;56427;51.580;4.656;2022-12-07T01:09:02;14.73;;;5.43;;
69305;SDS011;56427;51.580;4.656;2022-12-07T01:11:29;11.85;;;5.13;;
69305;SDS011;56427;51.580;4.656;2022-12-07T01:13:56;7.47;;;5.10;;
69305;SDS011;56427;51.580;4.656;2022-12-07T01:16:23;11.38;;;4.70;;
69305;SDS011;56427;51.580;4.656;2022-12-07T01:18:50;12.13;;;4.63;;
69305;SDS011;56427;51.580;4.656;2022-12-07T01:21:39;12.10;;;5.00;;
69305;SDS011;56427;51.580;4.656;2022-12-07T01:24:03;9.45;;;5.22;;
69305;SDS011;56427;51.580;4.656;2022-12-07T01:26:30;10.88;;;5.13;;
69305;SDS011;56427;51.580;4.656;2022-12-07T01:28:56;12.27;;;4.83;;
69305;SDS011;56427;51.580;4.656;2022-12-07T01:31:24;12.05;;;4.90;;
69305;SDS011;56427;51.580;4.656;2022-12-07T01:33:52;13.85;;;4.57;;
69305;SDS011;56427;51.580;4.656;2022-12-07T01:36:34;14.73;;;4.85;;
69305;SDS011;56427;51.580;4.656;2022-12-07T01:39:01;10.02;;;4.40;;
69305;SDS011;56427;51.580;4.656;2022-12-07T01:41:32;13.05;;;4.43;;
69305;SDS011;56427;51.580;4.656;2022-12-07T01:46:49;12.70;;;5.10;;
69305;SDS011;56427;51.580;4.656;2022-12-07T01:49:23;13.40;;;5.15;;
69305;SDS011;56427;51.580;4.656;2022-12-07T01:52:01;13.73;;;5.22;;
69305;SDS011;56427;51.580;4.656;2022-12-07T01:54:49;7.40;;;3.80;;
69305;SDS011;56427;51.580;4.656;2022-12-07T01:57:17;11.73;;;4.70;;
69305;SDS011;56427;51.580;4.656;2022-12-07T01:59:47;17.25;;;6.13;;
69305;SDS011;56427;51.580;4.656;2022-12-07T02:02:19;14.77;;;5.22;;
69305;SDS011;56427;51.580;4.656;2022-12-07T02:04:47;11.10;;;5.20;;
69305;SDS011;56427;51.580;4.656;2022-12-07T02:07:15;12.02;;;5.30;;
69305;SDS011;56427;51.580;4.656;2022-12-07T02:09:41;9.27;;;4.93;;
69305;SDS011;56427;51.580;4.656;2022-12-07T02:12:06;15.43;;;5.40;;
69305;SDS011;56427;51.580;4.656;2022-12-07T02:14:31;13.83;;;5.17;;
69305;SDS011;56427;51.580;4.656;2022-12-07T02:31:41;9.88;;;4.75;;
69305;SDS011;56427;51.580;4.656;2022-12-07T02:34:18;12.48;;;4.97;;
69305;SDS011;56427;51.580;4.656;2022-12-07T02:36:52;10.88;;;4.28;;
69305;SDS011;56427;51.580;4.656;2022-12-07T02:39:28;10.37;;;4.50;;
69305;SDS011;56427;51.580;4.656;2022-12-07T02:42:02;9.68;;;4.50;;
69305;SDS011;56427;51.580;4.656;2022-12-07T02:44:40;9.70;;;4.45;;
69305;SDS011;56427;51.580;4.656;2022-12-07T02:47:07;10.13;;;4.53;;
69305;SDS011;56427;51.580;4.656;2022-12-07T02:49:36;15.07;;;5.63;;
69305;SDS011;56427;51.580;4.656;2022-12-07T02:52:03;11.87;;;4.90;;
69305;SDS011;56427;51.580;4.656;2022-12-07T02:54:28;15.07;;;4.90;;
69305;SDS011;56427;51.580;4.656;2022-12-07T02:59:37;13.57;;;6.32;;
69305;SDS011;56427;51.580;4.656;2022-12-07T03:13:38;13.43;;;5.45;;
69305;SDS011;56427;51.580;4.656;2022-12-07T03:16:25;13.73;;;5.93;;
69305;SDS011;56427;51.580;4.656;2022-12-07T03:21:35;25.95;;;6.68;;
69305;SDS011;56427;51.580;4.656;2022-12-07T03:24:06;12.23;;;5.70;;
69305;SDS011;56427;51.580;4.656;2022-12-07T03:26:38;12.52;;;5.78;;
69305;SDS011;56427;51.580;4.656;2022-12-07T03:29:26;12.53;;;5.70;;
69305;SDS011;56427;51.580;4.656;2022-12-07T03:32:08;14.07;;;5.65;;
69305;SDS011;56427;51.580;4.656;2022-12-07T03:34:43;15.85;;;5.55;;
69305;SDS011;56427;51.580;4.656;2022-12-07T03:37:20;10.25;;;5.38;;
69305;SDS011;56427;51.580;4.656;2022-12-07T03:39:57;14.30;;;6.65;;
69305;SDS011;56427;51.580;4.656;2022-12-07T03:42:31;8.90;;;5.50;;
69305;SDS011;56427;51.580;4.656;2022-12-07T03:44:57;12.07;;;5.20;;
69305;SDS011;56427;51.580;4.656;2022-12-07T03:47:32;12.10;;;5.15;;
69305;SDS011;56427;51.580;4.656;2022-12-07T03:50:08;16.67;;;6.13;;
69305;SDS011;56427;51.580;4.656;2022-12-07T03:52:56;13.13;;;4.93;;
69305;SDS011;56427;51.580;4.656;2022-12-07T03:55:30;16.30;;;5.47;;
69305;SDS011;56427;51.580;4.656;2022-12-07T03:58:00;14.75;;;5.72;;
69305;SDS011;56427;51.580;4.656;2022-12-07T04:00:30;19.23;;;5.72;;
69305;SDS011;56427;51.580;4.656;2022-12-07T04:02:55;17.05;;;5.50;;
69305;SDS011;56427;51.580;4.656;2022-12-07T04:05:21;11.83;;;5.23;;
69305;SDS011;56427;51.580;4.656;2022-12-07T04:07:48;15.43;;;5.30;;
69305;SDS011;56427;51.580;4.656;2022-12-07T04:10:13;16.05;;;5.68;;
69305;SDS011;56427;51.580;4.656;2022-12-07T04:12:39;15.67;;;5.97;;
69305;SDS011;56427;51.580;4.656;2022-12-07T04:15:04;13.83;;;5.23;;
69305;SDS011;56427;51.580;4.656;2022-12-07T04:17:30;14.95;;;6.40;;
69305;SDS011;56427;51.580;4.656;2022-12-07T04:19:55;14.57;;;5.63;;
69305;SDS011;56427;51.580;4.656;2022-12-07T04:22:21;15.63;;;6.20;;
69305;SDS011;56427;51.580;4.656;2022-12-07T04:24:46;16.73;;;6.33;;
69305;SDS011;56427;51.580;4.656;2022-12-07T04:27:11;16.50;;;5.90;;
69305;SDS011;56427;51.580;4.656;2022-12-07T04:29:37;12.88;;;5.57;;
69305;SDS011;56427;51.580;4.656;2022-12-07T04:32:02;10.67;;;5.37;;
69305;SDS011;56427;51.580;4.656;2022-12-07T04:34:28;10.23;;;5.33;;
69305;SDS011;56427;51.580;4.656;2022-12-07T04:36:53;10.80;;;4.60;;
69305;SDS011;56427;51.580;4.656;2022-12-07T04:39:28;8.60;;;5.13;;
69305;SDS011;56427;51.580;4.656;2022-12-07T04:41:55;15.48;;;5.55;;
69305;SDS011;56427;51.580;4.656;2022-12-07T04:44:21;16.85;;;6.13;;
69305;SDS011;56427;51.580;4.656;2022-12-07T04:46:48;14.23;;;6.38;;
69305;SDS011;56427;51.580;4.656;2022-12-07T04:49:14;16.30;;;6.03;;
69305;SDS011;56427;51.580;4.656;2022-12-07T04:51:40;11.43;;;5.70;;
69305;SDS011;56427;51.580;4.656;2022-12-07T04:54:06;14.50;;;6.03;;
69305;SDS011;56427;51.580;4.656;2022-12-07T04:56:31;16.23;;;6.40;;
69305;SDS011;56427;51.580;4.656;2022-12-07T04:58:57;22.50;;;7.70;;
69305;SDS011;56427;51.580;4.656;2022-12-07T05:01:24;18.30;;;7.20;;
69305;SDS011;56427;51.580;4.656;2022-12-07T05:03:49;18.33;;;6.78;;
69305;SDS011;56427;51.580;4.656;2022-12-07T05:06:15;15.23;;;6.53;;
69305;SDS011;56427;51.580;4.656;2022-12-07T05:08:41;16.65;;;6.35;;
69305;SDS011;56427;51.580;4.656;2022-12-07T05:11:08;14.50;;;6.72;;
69305;SDS011;56427;51.580;4.656;2022-12-07T05:13:34;18.45;;;5.72;;
69305;SDS011;56427;51.580;4.656;2022-12-07T05:16:00;11.50;;;5.30;;
69305;SDS011;56427;51.580;4.656;2022-12-07T05:18:25;23.30;;;5.78;;
69305;SDS011;56427;51.580;4.656;2022-12-07T05:20:51;11.60;;;5.97;;
69305;SDS011;56427;51.580;4.656;2022-12-07T05:23:16;12.57;;;5.17;;
69305;SDS011;56427;51.580;4.656;2022-12-07T05:25:42;21.88;;;6.72;;
69305;SDS011;56427;51.580;4.656;2022-12-07T05:28:07;16.00;;;6.60;;
69305;SDS011;56427;51.580;4.656;2022-12-07T05:30:32;13.67;;;6.00;;
69305;SDS011;56427;51.580;4.656;2022-12-07T05:32:58;12.80;;;5.43;;
69305;SDS011;56427;51.580;4.656;2022-12-07T05:35:23;16.23;;;5.33;;
69305;SDS011;56427;51.580;4.656;2022-12-07T05:37:49;16.10;;;6.57;;
69305;SDS011;56427;51.580;4.656;2022-12-07T05:40:14;18.63;;;6.67;;
69305;SDS011;56427;51.580;4.656;2022-12-07T05:42:40;15.23;;;6.43;;
69305;SDS011;56427;51.580;4.656;2022-12-07T05:45:06;13.75;;;5.97;;
69305;SDS011;56427;51.580;4.656;2022-12-07T05:47:32;16.00;;;6.50;;
69305;SDS011;56427;51.580;4.656;2022-12-07T05:49:58;12.80;;;5.50;;
69305;SDS011;56427;51.580;4.656;2022-12-07T05:52:23;10.97;;;5.90;;
69305;SDS011;56427;51.580;4.656;2022-12-07T05:54:48;14.67;;;5.90;;
69305;SDS011;56427;51.580;4.656;2022-12-07T05:57:14;18.53;;;6.90;;
69305;SDS011;56427;51.580;4.656;2022-12-07T05:59:39;16.73;;;6.82;;
69305;SDS011;56427;51.580;4.656;2022-12-07T06:02:06;13.63;;;5.37;;
69305;SDS011;56427;51.580;4.656;2022-12-07T06:04:40;16.85;;;5.80;;
69305;SDS011;56427;51.580;4.656;2022-12-07T06:07:07;14.13;;;5.70;;
69305;SDS011;56427;51.580;4.656;2022-12-07T06:09:32;18.77;;;6.15;;
69305;SDS011;56427;51.580;4.656;2022-12-07T06:11:59;16.33;;;6.67;;
69305;SDS011;56427;51.580;4.656;2022-12-07T06:14:43;13.27;;;5.18;;
69305;SDS011;56427;51.580;4.656;2022-12-07T06:17:10;19.05;;;6.03;;
69305;SDS011;56427;51.580;4.656;2022-12-07T06:19:37;12.75;;;5.38;;
69305;SDS011;56427;51.580;4.656;2022-12-07T06:22:02;13.00;;;6.13;;
69305;SDS011;56427;51.580;4.656;2022-12-07T06:24:29;22.10;;;6.22;;
69305;SDS011;56427;51.580;4.656;2022-12-07T06:26:55;14.93;;;5.95;;
69305;SDS011;56427;51.580;4.656;2022-12-07T06:29:21;16.83;;;5.97;;
69305;SDS011;56427;51.580;4.656;2022-12-07T06:31:48;18.55;;;6.45;;
69305;SDS011;56427;51.580;4.656;2022-12-07T06:34:17;15.73;;;5.83;;
69305;SDS011;56427;51.580;4.656;2022-12-07T06:36:44;13.85;;;5.43;;
69305;SDS011;56427;51.580;4.656;2022-12-07T06:39:10;19.13;;;6.70;;
69305;SDS011;56427;51.580;4.656;2022-12-07T06:41:36;14.50;;;5.93;;
69305;SDS011;56427;51.580;4.656;2022-12-07T06:44:02;11.77;;;5.18;;
69305;SDS011;56427;51.580;4.656;2022-12-07T06:46:28;12.40;;;5.67;;
69305;SDS011;56427;51.580;4.656;2022-12-07T06:48:54;17.27;;;5.78;;
69305;SDS011;56427;51.580;4.656;2022-12-07T06:51:19;16.70;;;5.43;;
69305;SDS011;56427;51.580;4.656;2022-12-07T06:53:45;16.37;;;5.27;;
69305;SDS011;56427;51.580;4.656;2022-12-07T06:56:10;11.80;;;4.13;;
69305;SDS011;56427;51.580;4.656;2022-12-07T06:58:35;15.43;;;4.45;;
69305;SDS011;56427;51.580;4.656;2022-12-07T07:01:01;10.48;;;4.60;;
69305;SDS011;56427;51.580;4.656;2022-12-07T07:03:26;15.10;;;4.53;;
69305;SDS011;56427;51.580;4.656;2022-12-07T07:05:52;15.27;;;4.20;;
69305;SDS011;56427;51.580;4.656;2022-12-07T07:08:17;10.87;;;4.23;;
69305;SDS011;56427;51.580;4.656;2022-12-07T07:10:42;11.03;;;3.80;;
69305;SDS011;56427;51.580;4.656;2022-12-07T07:13:07;11.60;;;3.60;;
69305;SDS011;56427;51.580;4.656;2022-12-07T07:15:33;9.65;;;3.50;;
69305;SDS011;56427;51.580;4.656;2022-12-07T07:17:59;8.37;;;3.20;;
69305;SDS011;56427;51.580;4.656;2022-12-07T07:20:25;10.57;;;3.50;;
69305;SDS011;56427;51.580;4.656;2022-12-07T07:22:50;10.70;;;3.70;;
69305;SDS011;56427;51.580;4.656;2022-12-07T07:25:18;9.93;;;3.30;;
69305;SDS011;56427;51.580;4.656;2022-12-07T07:27:43;9.13;;;3.53;;
69305;SDS011;56427;51.580;4.656;2022-12-07T07:30:09;8.20;;;3.27;;
69305;SDS011;56427;51.580;4.656;2022-12-07T07:32:34;11.57;;;2.92;;
69305;SDS011;56427;51.580;4.656;2022-12-07T07:35:00;10.47;;;3.10;;
69305;SDS011;56427;51.580;4.656;2022-12-07T07:37:25;12.37;;;3.50;;
69305;SDS011;56427;51.580;4.656;2022-12-07T07:39:51;9.73;;;3.10;;
69305;SDS011;56427;51.580;4.656;2022-12-07T07:42:16;13.03;;;3.83;;
69305;SDS011;56427;51.580;4.656;2022-12-07T07:44:41;13.63;;;3.83;;
69305;SDS011;56427;51.580;4.656;2022-12-07T07:47:07;12.10;;;3.43;;
69305;SDS011;56427;51.580;4.656;2022-12-07T07:49:32;15.27;;;3.47;;
69305;SDS011;56427;51.580;4.656;2022-12-07T07:51:57;7.57;;;2.63;;
69305;SDS011;56427;51.580;4.656;2022-12-07T07:54:23;8.07;;;2.93;;
69305;SDS011;56427;51.580;4.656;2022-12-07T07:56:48;11.13;;;3.43;;
69305;SDS011;56427;51.580;4.656;2022-12-07T07:59:14;18.13;;;4.43;;
69305;SDS011;56427;51.580;4.656;2022-12-07T08:01:39;12.45;;;3.15;;
69305;SDS011;56427;51.580;4.656;2022-12-07T08:04:04;9.17;;;2.67;;
69305;SDS011;56427;51.580;4.656;2022-12-07T08:06:30;11.90;;;2.77;;
69305;SDS011;56427;51.580;4.656;2022-12-07T08:08:55;10.53;;;2.90;;
69305;SDS011;56427;51.580;4.656;2022-12-07T08:11:22;15.60;;;2.85;;
69305;SDS011;56427;51.580;4.656;2022-12-07T08:13:48;6.93;;;3.00;;
69305;SDS011;56427;51.580;4.656;2022-12-07T08:16:13;10.33;;;3.60;;
69305;SDS011;56427;51.580;4.656;2022-12-07T08:18:40;13.52;;;3.15;;
69305;SDS011;56427;51.580;4.656;2022-12-07T08:21:06;14.90;;;3.73;;
69305;SDS011;56427;51.580;4.656;2022-12-07T08:23:34;13.30;;;4.00;;
69305;SDS011;56427;51.580;4.656;2022-12-07T08:26:00;15.67;;;3.60;;
69305;SDS011;56427;51.580;4.656;2022-12-07T08:28:27;11.90;;;3.42;;
69305;SDS011;56427;51.580;4.656;2022-12-07T08:30:57;19.30;;;4.35;;
69305;SDS011;56427;51.580;4.656;2022-12-07T08:33:33;17.95;;;3.63;;
69305;SDS011;56427;51.580;4.656;2022-12-07T08:36:06;18.10;;;3.97;;
69305;SDS011;56427;51.580;4.656;2022-12-07T08:38:34;12.83;;;3.27;;
69305;SDS011;56427;51.580;4.656;2022-12-07T08:41:00;17.48;;;3.97;;
69305;SDS011;56427;51.580;4.656;2022-12-07T08:43:25;13.30;;;4.43;;
69305;SDS011;56427;51.580;4.656;2022-12-07T08:45:53;15.05;;;4.50;;
69305;SDS011;56427;51.580;4.656;2022-12-07T08:48:31;14.50;;;3.65;;
69305;SDS011;56427;51.580;4.656;2022-12-07T08:51:00;11.37;;;3.43;;
69305;SDS011;56427;51.580;4.656;2022-12-07T08:53:27;15.45;;;4.03;;
69305;SDS011;56427;51.580;4.656;2022-12-07T08:55:54;12.82;;;3.20;;
69305;SDS011;56427;51.580;4.656;2022-12-07T08:58:21;8.02;;;3.17;;
69305;SDS011;56427;51.580;4.656;2022-12-07T09:00:46;7.90;;;3.00;;
69305;SDS011;56427;51.580;4.656;2022-12-07T09:03:12;12.47;;;3.30;;
69305;SDS011;56427;51.580;4.656;2022-12-07T09:05:37;9.60;;;3.20;;
69305;SDS011;56427;51.580;4.656;2022-12-07T09:08:02;12.27;;;2.97;;
69305;SDS011;56427;51.580;4.656;2022-12-07T09:10:28;12.10;;;3.07;;
69305;SDS011;56427;51.580;4.656;2022-12-07T09:12:54;8.77;;;2.63;;
69305;SDS011;56427;51.580;4.656;2022-12-07T09:15:19;11.75;;;2.75;;
69305;SDS011;56427;51.580;4.656;2022-12-07T09:17:45;8.88;;;2.95;;
69305;SDS011;56427;51.580;4.656;2022-12-07T09:20:11;7.70;;;2.27;;
69305;SDS011;56427;51.580;4.656;2022-12-07T09:22:37;11.07;;;2.30;;
69305;SDS011;56427;51.580;4.656;2022-12-07T09:25:02;11.67;;;2.50;;
69305;SDS011;56427;51.580;4.656;2022-12-07T09:27:28;10.20;;;2.50;;
69305;SDS011;56427;51.580;4.656;2022-12-07T09:29:54;10.83;;;2.17;;
69305;SDS011;56427;51.580;4.656;2022-12-07T09:32:19;11.47;;;2.70;;
69305;SDS011;56427;51.580;4.656;2022-12-07T09:34:44;9.07;;;2.05;;
69305;SDS011;56427;51.580;4.656;2022-12-07T09:37:10;12.07;;;2.60;;
69305;SDS011;56427;51.580;4.656;2022-12-07T09:39:38;12.40;;;2.63;;
69305;SDS011;56427;51.580;4.656;2022-12-07T09:42:04;9.27;;;2.00;;
69305;SDS011;56427;51.580;4.656;2022-12-07T09:44:31;8.27;;;2.10;;
69305;SDS011;56427;51.580;4.656;2022-12-07T09:46:58;13.38;;;2.40;;
69305;SDS011;56427;51.580;4.656;2022-12-07T09:49:24;8.38;;;2.50;;
69305;SDS011;56427;51.580;4.656;2022-12-07T09:52:26;7.85;;;2.42;;
69305;SDS011;56427;51.580;4.656;2022-12-07T09:54:51;12.90;;;3.17;;
69305;SDS011;56427;51.580;4.656;2022-12-07T09:57:17;9.87;;;2.47;;
69305;SDS011;56427;51.580;4.656;2022-12-07T09:59:46;9.32;;;2.50;;
69305;SDS011;56427;51.580;4.656;2022-12-07T10:04:49;4.70;;;1.77;;
69305;SDS011;56427;51.580;4.656;2022-12-07T10:07:14;7.73;;;1.93;;
69305;SDS011;56427;51.580;4.656;2022-12-07T10:09:39;8.57;;;1.70;;
69305;SDS011;56427;51.580;4.656;2022-12-07T10:12:06;12.70;;;2.20;;
69305;SDS011;56427;51.580;4.656;2022-12-07T10:14:37;8.77;;;1.65;;
69305;SDS011;56427;51.580;4.656;2022-12-07T10:20:22;7.82;;;2.20;;
69305;SDS011;56427;51.580;4.656;2022-12-07T10:23:00;6.90;;;2.00;;
69305;SDS011;56427;51.580;4.656;2022-12-07T10:25:33;8.15;;;2.13;;
69305;SDS011;56427;51.580;4.656;2022-12-07T10:30:45;11.20;;;2.00;;
69305;SDS011;56427;51.580;4.656;2022-12-07T10:36:22;12.25;;;2.22;;
69305;SDS011;56427;51.580;4.656;2022-12-07T10:39:12;7.00;;;2.08;;
69305;SDS011;56427;51.580;4.656;2022-12-07T10:41:59;7.00;;;1.90;;
69305;SDS011;56427;51.580;4.656;2022-12-07T10:44:27;7.70;;;2.08;;
69305;SDS011;56427;51.580;4.656;2022-12-07T10:49:36;6.55;;;1.65;;
69305;SDS011;56427;51.580;4.656;2022-12-07T10:58:45;4.32;;;1.67;;
69305;SDS011;56427;51.580;4.656;2022-12-07T11:06:22;7.28;;;1.58;;
69305;SDS011;56427;51.580;4.656;2022-12-07T11:16:51;5.82;;;1.85;;
69305;SDS011;56427;51.580;4.656;2022-12-07T11:22:51;5.15;;;1.65;;
69305;SDS011;56427;51.580;4.656;2022-12-07T11:25:16;5.18;;;2.00;;
69305;SDS011;56427;51.580;4.656;2022-12-07T11:33:45;7.43;;;1.70;;
69305;SDS011;56427;51.580;4.656;2022-12-07T11:36:31;5.32;;;1.33;;
69305;SDS011;56427;51.580;4.656;2022-12-07T11:39:05;5.78;;;1.75;;
69305;SDS011;56427;51.580;4.656;2022-12-07T11:42:00;4.75;;;1.02;;
69305;SDS011;56427;51.580;4.656;2022-12-07T11:44:57;7.07;;;1.13;;
69305;SDS011;56427;51.580;4.656;2022-12-07T11:47:30;4.95;;;1.73;;
69305;SDS011;56427;51.580;4.656;2022-12-07T11:50:08;4.35;;;1.30;;
69305;SDS011;56427;51.580;4.656;2022-12-07T11:52:47;4.97;;;1.40;;
69305;SDS011;56427;51.580;4.656;2022-12-07T11:55:24;4.63;;;1.40;;
69305;SDS011;56427;51.580;4.656;2022-12-07T11:58:04;4.35;;;1.40;;
69305;SDS011;56427;51.580;4.656;2022-12-07T12:00:55;2.75;;;1.20;;
69305;SDS011;56427;51.580;4.656;2022-12-07T12:03:38;7.75;;;1.60;;
69305;SDS011;56427;51.580;4.656;2022-12-07T12:06:08;4.22;;;1.40;;
69305;SDS011;56427;51.580;4.656;2022-12-07T12:08:35;3.40;;;1.40;;
69305;SDS011;56427;51.580;4.656;2022-12-07T12:11:15;5.87;;;1.70;;
69305;SDS011;56427;51.580;4.656;2022-12-07T12:19:41;5.07;;;1.60;;
69305;SDS011;56427;51.580;4.656;2022-12-07T12:22:24;6.93;;;1.77;;
69305;SDS011;56427;51.580;4.656;2022-12-07T12:24:57;5.50;;;1.80;;
69305;SDS011;56427;51.580;4.656;2022-12-07T12:27:25;6.65;;;1.92;;
69305;SDS011;56427;51.580;4.656;2022-12-07T12:29:55;7.30;;;2.05;;
69305;SDS011;56427;51.580;4.656;2022-12-07T12:32:29;6.20;;;1.53;;
69305;SDS011;56427;51.580;4.656;2022-12-07T12:34:57;5.40;;;1.48;;
69305;SDS011;56427;51.580;4.656;2022-12-07T12:42:46;8.10;;;1.88;;
69305;SDS011;56427;51.580;4.656;2022-12-07T12:45:24;6.53;;;1.80;;
69305;SDS011;56427;51.580;4.656;2022-12-07T12:47:52;4.88;;;1.90;;
69305;SDS011;56427;51.580;4.656;2022-12-07T12:50:23;12.35;;;2.50;;
69305;SDS011;56427;51.580;4.656;2022-12-07T12:58:40;7.37;;;2.20;;
69305;SDS011;56427;51.580;4.656;2022-12-07T13:04:14;8.60;;;1.83;;
69305;SDS011;56427;51.580;4.656;2022-12-07T13:06:48;4.78;;;1.70;;
69305;SDS011;56427;51.580;4.656;2022-12-07T13:09:18;5.80;;;1.77;;
69305;SDS011;56427;51.580;4.656;2022-12-07T13:11:50;4.72;;;1.67;;
69305;SDS011;56427;51.580;4.656;2022-12-07T13:14:39;3.67;;;1.33;;
69305;SDS011;56427;51.580;4.656;2022-12-07T13:19:56;5.85;;;1.38;;
69305;SDS011;56427;51.580;4.656;2022-12-07T13:25:18;3.85;;;1.40;;
69305;SDS011;56427;51.580;4.656;2022-12-07T13:27:51;4.45;;;1.45;;
69305;SDS011;56427;51.580;4.656;2022-12-07T13:30:22;5.18;;;1.10;;
69305;SDS011;56427;51.580;4.656;2022-12-07T13:32:52;3.58;;;1.33;;
69305;SDS011;56427;51.580;4.656;2022-12-07T13:35:33;4.30;;;1.30;;
69305;SDS011;56427;51.580;4.656;2022-12-07T13:38:02;3.33;;;1.02;;
69305;SDS011;56427;51.580;4.656;2022-12-07T13:40:30;4.57;;;1.20;;
69305;SDS011;56427;51.580;4.656;2022-12-07T13:43:00;4.10;;;1.20;;
69305;SDS011;56427;51.580;4.656;2022-12-07T13:45:28;5.50;;;1.20;;
69305;SDS011;56427;51.580;4.656;2022-12-07T13:48:19;6.43;;;1.23;;
69305;SDS011;56427;51.580;4.656;2022-12-07T13:51:29;3.78;;;1.10;;
69305;SDS011;56427;51.580;4.656;2022-12-07T13:54:07;5.90;;;1.60;;
69305;SDS011;56427;51.580;4.656;2022-12-07T13:56:35;6.07;;;1.60;;
69305;SDS011;56427;51.580;4.656;2022-12-07T13:59:01;7.45;;;1.88;;
69305;SDS011;56427;51.580;4.656;2022-12-07T14:01:27;7.35;;;1.52;;
69305;SDS011;56427;51.580;4.656;2022-12-07T14:03:55;5.30;;;1.30;;
69305;SDS011;56427;51.580;4.656;2022-12-07T14:06:22;4.72;;;1.50;;
69305;SDS011;56427;51.580;4.656;2022-12-07T14:09:09;7.00;;;1.43;;
69305;SDS011;56427;51.580;4.656;2022-12-07T14:11:43;3.40;;;1.30;;
69305;SDS011;56427;51.580;4.656;2022-12-07T14:14:20;5.43;;;1.60;;
69305;SDS011;56427;51.580;4.656;2022-12-07T14:16:57;6.07;;;1.70;;
69305;SDS011;56427;51.580;4.656;2022-12-07T14:19:45;4.70;;;1.50;;
69305;SDS011;56427;51.580;4.656;2022-12-07T14:22:29;5.50;;;1.47;;
69305;SDS011;56427;51.580;4.656;2022-12-07T14:27:47;10.02;;;1.60;;
69305;SDS011;56427;51.580;4.656;2022-12-07T14:30:21;5.53;;;1.60;;
69305;SDS011;56427;51.580;4.656;2022-12-07T14:32:54;6.82;;;1.52;;
69305;SDS011;56427;51.580;4.656;2022-12-07T14:35:29;4.63;;;1.63;;
69305;SDS011;56427;51.580;4.656;2022-12-07T14:37:56;6.30;;;1.83;;
69305;SDS011;56427;51.580;4.656;2022-12-07T14:40:23;4.88;;;2.05;;
69305;SDS011;56427;51.580;4.656;2022-12-07T14:42:50;5.60;;;1.80;;
69305;SDS011;56427;51.580;4.656;2022-12-07T14:45:18;5.07;;;1.63;;
69305;SDS011;56427;51.580;4.656;2022-12-07T14:47:46;7.40;;;1.80;;
69305;SDS011;56427;51.580;4.656;2022-12-07T14:50:12;5.50;;;1.70;;
69305;SDS011;56427;51.580;4.656;2022-12-07T14:52:39;6.20;;;1.95;;
69305;SDS011;56427;51.580;4.656;2022-12-07T14:55:13;7.00;;;2.00;;
69305;SDS011;56427;51.580;4.656;2022-12-07T14:57:41;5.67;;;1.53;;
69305;SDS011;56427;51.580;4.656;2022-12-07T15:00:06;7.20;;;1.73;;
69305;SDS011;56427;51.580;4.656;2022-12-07T15:02:33;7.65;;;2.10;;
69305;SDS011;56427;51.580;4.656;2022-12-07T15:04:58;9.23;;;2.00;;
69305;SDS011;56427;51.580;4.656;2022-12-07T15:07:23;9.33;;;1.97;;
69305;SDS011;56427;51.580;4.656;2022-12-07T15:09:50;8.90;;;1.95;;
69305;SDS011;56427;51.580;4.656;2022-12-07T15:12:15;9.77;;;2.43;;
69305;SDS011;56427;51.580;4.656;2022-12-07T15:14:40;7.27;;;1.80;;
69305;SDS011;56427;51.580;4.656;2022-12-07T15:17:06;4.82;;;1.85;;
69305;SDS011;56427;51.580;4.656;2022-12-07T15:19:31;4.90;;;1.70;;
69305;SDS011;56427;51.580;4.656;2022-12-07T15:21:56;7.00;;;1.97;;
69305;SDS011;56427;51.580;4.656;2022-12-07T15:24:23;4.28;;;1.80;;
69305;SDS011;56427;51.580;4.656;2022-12-07T15:26:49;6.27;;;2.23;;
69305;SDS011;56427;51.580;4.656;2022-12-07T15:29:14;8.20;;;1.90;;
69305;SDS011;56427;51.580;4.656;2022-12-07T15:31:40;5.35;;;1.50;;
69305;SDS011;56427;51.580;4.656;2022-12-07T15:34:06;5.45;;;2.08;;
69305;SDS011;56427;51.580;4.656;2022-12-07T15:36:32;7.03;;;1.63;;
69305;SDS011;56427;51.580;4.656;2022-12-07T15:38:58;7.68;;;1.70;;
69305;SDS011;56427;51.580;4.656;2022-12-07T15:41:24;3.97;;;1.60;;
69305;SDS011;56427;51.580;4.656;2022-12-07T15:43:49;6.17;;;2.13;;
69305;SDS011;56427;51.580;4.656;2022-12-07T15:46:34;7.90;;;2.35;;
69305;SDS011;56427;51.580;4.656;2022-12-07T15:49:02;8.13;;;2.22;;
69305;SDS011;56427;51.580;4.656;2022-12-07T15:51:28;6.15;;;2.60;;
69305;SDS011;56427;51.580;4.656;2022-12-07T15:53:53;9.93;;;2.40;;
69305;SDS011;56427;51.580;4.656;2022-12-07T15:56:19;7.83;;;2.60;;
69305;SDS011;56427;51.580;4.656;2022-12-07T15:58:45;6.50;;;3.08;;
69305;SDS011;56427;51.580;4.656;2022-12-07T16:01:14;6.60;;;3.10;;
69305;SDS011;56427;51.580;4.656;2022-12-07T16:03:42;9.68;;;4.57;;
69305;SDS011;56427;51.580;4.656;2022-12-07T16:06:08;10.30;;;4.65;;
69305;SDS011;56427;51.580;4.656;2022-12-07T16:08:33;7.60;;;3.03;;
69305;SDS011;56427;51.580;4.656;2022-12-07T16:10:58;5.93;;;2.75;;
69305;SDS011;56427;51.580;4.656;2022-12-07T16:13:24;12.13;;;3.00;;
69305;SDS011;56427;51.580;4.656;2022-12-07T16:15:49;11.57;;;3.00;;
69305;SDS011;56427;51.580;4.656;2022-12-07T16:18:15;9.10;;;2.63;;
69305;SDS011;56427;51.580;4.656;2022-12-07T16:20:40;16.90;;;3.38;;
69305;SDS011;56427;51.580;4.656;2022-12-07T16:23:06;18.97;;;4.87;;
69305;SDS011;56427;51.580;4.656;2022-12-07T16:25:32;7.85;;;2.40;;
69305;SDS011;56427;51.580;4.656;2022-12-07T16:27:58;10.03;;;2.50;;
69305;SDS011;56427;51.580;4.656;2022-12-07T16:30:23;6.15;;;2.78;;
69305;SDS011;56427;51.580;4.656;2022-12-07T16:32:48;7.93;;;2.53;;
69305;SDS011;56427;51.580;4.656;2022-12-07T16:35:14;5.73;;;2.20;;
69305;SDS011;56427;51.580;4.656;2022-12-07T16:37:41;6.97;;;2.20;;
69305;SDS011;56427;51.580;4.656;2022-12-07T16:40:07;10.48;;;3.10;;